Time;durP1;ratioP1;P1;durP2;ratioP2;P2;SDS_P1;SDS_P2;PMS_P1;PMS_P2;Temp;Humidity;BMP_temperature;BMP_pressure;BME280_temperature;BME280_humidity;BME280_pressure;Samples;Min_cycle;Max_cycle;Signal;HPM_P1;HPM_P2
2021/11/26 00:00:13;;;;;;;83.60;37.65;;;;;;;4.08;100.00;97801.80;2188474;81;21001;-84
2021/11/26 00:03:16;;;;;;;64.17;34.83;;;;;;;4.06;100.00;97807.63;2187557;81;21091;-84
2021/11/26 00:06:17;;;;;;;73.20;37.78;;;;;;;4.05;100.00;97816.38;2188078;81;21021;-84
2021/11/26 00:09:18;;;;;;;110.40;47.83;;;;;;;3.97;100.00;97813.77;2187775;81;20958;-84
2021/11/26 00:12:19;;;;;;;98.75;44.60;;;;;;;3.95;100.00;97813.94;2187939;81;21009;-84
2021/11/26 00:15:36;;;;;;;85.10;39.20;;;;;;;3.93;100.00;97813.30;2188096;81;21013;-83
2021/11/26 00:18:26;;;;;;;69.00;36.75;;;;;;;3.97;100.00;97809.89;2186814;81;21044;-84
2021/11/26 00:21:27;;;;;;;92.30;44.23;;;;;;;4.00;100.00;97803.08;2188564;81;21069;-84
2021/11/26 00:24:28;;;;;;;126.62;62.35;;;;;;;4.05;100.00;97803.91;2188610;81;21013;-83
2021/11/26 00:27:28;;;;;;;163.47;77.70;;;;;;;4.04;100.00;97800.52;2188558;81;21489;-84
2021/11/26 00:30:29;;;;;;;108.55;55.20;;;;;;;4.04;100.00;97804.40;2187961;81;21061;-83
2021/11/26 00:33:30;;;;;;;87.08;42.25;;;;;;;3.99;100.00;97793.20;2187772;81;21032;-85
2021/11/26 00:36:31;;;;;;;75.70;40.05;;;;;;;4.02;100.00;97799.03;2188373;81;21041;-83
2021/11/26 00:39:32;;;;;;;73.78;38.30;;;;;;;4.04;100.00;97797.92;2187947;81;20954;-84
2021/11/26 00:45:52;;;;;;;69.27;35.15;;;;;;;4.09;100.00;97782.69;2188012;81;21073;-83
2021/11/26 00:48:52;;;;;;;63.05;34.18;;;;;;;4.09;100.00;97785.28;2187925;81;21021;-82
2021/11/26 00:51:53;;;;;;;71.90;37.28;;;;;;;4.17;100.00;97781.41;2187457;81;20977;-85
2021/11/26 00:54:54;;;;;;;64.95;34.18;;;;;;;4.17;100.00;97781.41;2171384;81;21009;-83
2021/11/26 00:57:55;;;;;;;64.90;35.83;;;;;;;4.22;100.00;97780.45;2171467;81;20947;-84
2021/11/26 01:00:56;;;;;;;66.02;35.88;;;;;;;4.22;100.00;97771.86;2171266;81;22103;-83
2021/11/26 01:03:56;;;;;;;71.00;38.25;;;;;;;4.23;100.00;97765.70;2171342;81;21009;-83
2021/11/26 01:06:57;;;;;;;72.50;38.02;;;;;;;4.23;100.00;97773.48;2171368;81;21019;-84
2021/11/26 01:09:58;;;;;;;69.15;35.98;;;;;;;4.22;100.00;97767.98;2171293;81;21097;-84
2021/11/26 01:12:59;;;;;;;65.57;36.23;;;;;;;4.20;100.00;97764.72;2171364;81;20978;-83
2021/11/26 01:16:00;;;;;;;64.53;36.13;;;;;;;4.19;100.00;97765.69;2171505;82;21054;-83
2021/11/26 01:19:01;;;;;;;66.90;35.50;;;;;;;4.21;100.00;97763.28;2171624;81;20969;-84
2021/11/26 01:22:01;;;;;;;64.58;35.03;;;;;;;4.23;100.00;97761.83;2171999;82;21011;-83
2021/11/26 01:25:04;;;;;;;65.15;34.35;;;;;;;4.22;100.00;97755.83;2171988;82;20993;-81
2021/11/26 01:28:06;;;;;;;65.42;36.30;;;;;;;4.13;100.00;97738.67;2171929;82;21265;-84
2021/11/26 01:31:07;;;;;;;61.92;34.78;;;;;;;4.19;100.00;97739.30;2171343;81;20935;-85
2021/11/26 01:34:09;;;;;;;65.32;36.50;;;;;;;4.14;100.00;97740.28;2171755;82;21056;-83
2021/11/26 01:37:10;;;;;;;72.25;37.42;;;;;;;4.11;100.00;97730.71;2171453;81;21060;-84
2021/11/26 01:40:11;;;;;;;62.88;34.55;;;;;;;4.10;100.00;97735.58;2171743;81;20986;-85
2021/11/26 01:43:12;;;;;;;65.92;34.60;;;;;;;4.07;100.00;97728.94;2171530;81;21002;-84
2021/11/26 01:46:13;;;;;;;74.97;39.88;;;;;;;4.02;100.00;97729.09;2171164;81;20962;-84
2021/11/26 01:49:13;;;;;;;73.05;37.98;;;;;;;3.98;100.00;97724.24;2171307;81;21002;-84
2021/11/26 01:52:14;;;;;;;69.67;37.98;;;;;;;4.04;100.00;97723.29;2171225;81;21540;-85
2021/11/26 01:55:15;;;;;;;71.92;36.38;;;;;;;4.10;100.00;97733.79;2171360;82;21010;-84
2021/11/26 01:58:16;;;;;;;68.30;37.90;;;;;;;4.14;100.00;97728.63;2171126;81;21101;-85
2021/11/26 02:01:17;;;;;;;69.10;36.68;;;;;;;4.17;100.00;97730.07;2171303;82;20958;-83
2021/11/26 02:04:17;;;;;;;70.55;39.63;;;;;;;4.22;100.00;97722.14;2171359;81;21615;-84
2021/11/26 02:07:18;;;;;;;68.33;38.63;;;;;;;4.21;100.00;97728.30;2171156;81;20982;-84
2021/11/26 02:10:19;;;;;;;68.55;37.60;;;;;;;4.22;100.00;97720.84;2171366;82;21430;-83
2021/11/26 02:13:20;;;;;;;76.50;40.25;;;;;;;4.17;100.00;97724.41;2171238;81;21062;-84
2021/11/26 02:16:21;;;;;;;76.75;42.85;;;;;;;4.17;100.00;97711.94;2171460;81;20990;-83
2021/11/26 02:19:22;;;;;;;71.47;38.40;;;;;;;4.19;100.00;97720.34;2171160;82;21526;-83
2021/11/26 02:22:23;;;;;;;74.00;39.70;;;;;;;4.18;100.00;97721.33;2171331;81;21021;-83
2021/11/26 02:25:23;;;;;;;69.58;37.60;;;;;;;4.15;100.00;97715.98;2171271;81;21023;-83
2021/11/26 02:28:25;;;;;;;74.03;40.00;;;;;;;4.13;100.00;97721.02;2172092;82;21082;-83
2021/11/26 02:31:25;;;;;;;76.97;41.20;;;;;;;4.14;100.00;97709.68;2172540;82;20966;-82
2021/11/26 02:34:26;;;;;;;75.95;42.67;;;;;;;4.17;100.00;97713.23;2171353;81;21073;-83
2021/11/26 02:37:27;;;;;;;85.42;46.02;;;;;;;4.12;100.00;97716.81;2171591;81;20963;-84
2021/11/26 02:40:28;;;;;;;80.28;42.62;;;;;;;4.12;100.00;97712.44;2171902;81;20942;-84
2021/11/26 02:43:29;;;;;;;76.12;42.15;;;;;;;4.16;100.00;97703.84;2171170;81;21061;-83
2021/11/26 02:46:29;;;;;;;72.17;40.65;;;;;;;4.19;100.00;97705.61;2171405;81;21422;-85
2021/11/26 02:49:30;;;;;;;75.85;41.80;;;;;;;4.15;100.00;97712.59;2171233;81;21025;-84
2021/11/26 02:52:31;;;;;;;75.83;41.08;;;;;;;4.14;100.00;97711.78;2171296;81;21030;-84
2021/11/26 02:55:32;;;;;;;77.40;40.55;;;;;;;4.14;100.00;97712.27;2171391;81;20998;-84
2021/11/26 02:58:33;;;;;;;76.12;39.48;;;;;;;4.18;100.00;97722.13;2171407;81;21085;-84
2021/11/26 03:01:34;;;;;;;71.92;38.42;;;;;;;4.23;100.00;97719.06;2171330;81;20954;-84
2021/11/26 03:04:34;;;;;;;72.92;38.85;;;;;;;4.28;100.00;97716.29;2171338;82;21049;-83
2021/11/26 03:07:35;;;;;;;71.07;39.83;;;;;;;4.29;100.00;97718.39;2171311;81;21042;-85
2021/11/26 03:10:36;;;;;;;74.67;41.25;;;;;;;4.31;100.00;97716.95;2171514;81;21033;-85
2021/11/26 03:13:37;;;;;;;68.85;38.28;;;;;;;4.32;100.00;97714.20;2171336;81;21065;-83
2021/11/26 03:16:37;;;;;;;71.47;39.15;;;;;;;4.26;100.00;97696.70;2171442;81;20966;-84
2021/11/26 03:19:38;;;;;;;77.05;40.20;;;;;;;4.27;100.00;97687.95;2171718;81;21073;-84
2021/11/26 03:22:39;;;;;;;70.03;36.40;;;;;;;4.25;100.00;97688.12;2171533;82;21500;-84
2021/11/26 03:25:41;;;;;;;75.83;39.98;;;;;;;4.19;100.00;97695.73;2171421;81;20962;-84
2021/11/26 03:28:42;;;;;;;73.55;38.83;;;;;;;4.10;100.00;97684.56;2171851;82;21001;-84
2021/11/26 03:31:43;;;;;;;74.47;38.42;;;;;;;4.09;100.00;97693.31;2172638;81;20982;-83
2021/11/26 03:34:44;;;;;;;70.15;37.85;;;;;;;4.04;100.00;97681.35;2172425;82;20962;-84
2021/11/26 03:37:44;;;;;;;72.62;38.90;;;;;;;4.09;100.00;97685.54;2171623;81;20977;-84
2021/11/26 03:40:45;;;;;;;66.17;38.40;;;;;;;4.13;100.00;97679.08;2171569;81;20989;-84
2021/11/26 03:43:46;;;;;;;78.37;43.30;;;;;;;4.17;100.00;97673.88;2171552;81;21543;-84
2021/11/26 03:46:47;;;;;;;76.77;42.10;;;;;;;4.17;100.00;97673.88;2171315;81;21021;-83
2021/11/26 03:49:48;;;;;;;67.45;37.83;;;;;;;4.20;100.00;97663.66;2171071;82;21038;-83
2021/11/26 03:52:49;;;;;;;66.97;35.23;;;;;;;4.13;100.00;97670.50;2172270;81;21004;-83
2021/11/26 03:55:49;;;;;;;74.05;38.67;;;;;;;4.08;100.00;97659.80;2188053;81;21042;-84
2021/11/26 03:58:50;;;;;;;73.67;38.10;;;;;;;3.94;100.00;97653.52;2188034;81;20977;-83
2021/11/26 04:01:51;;;;;;;70.50;38.73;;;;;;;3.95;100.00;97655.13;2188592;81;20956;-84
2021/11/26 04:04:52;;;;;;;78.65;40.15;;;;;;;3.97;100.00;97651.40;2189406;81;21104;-83
2021/11/26 04:07:53;;;;;;;77.05;39.35;;;;;;;4.02;100.00;97639.72;2189655;81;21005;-84
2021/11/26 04:10:53;;;;;;;73.55;40.92;;;;;;;4.06;100.00;97637.14;2188187;81;21041;-84
2021/11/26 04:13:54;;;;;;;67.40;37.45;;;;;;;4.14;100.00;97628.88;2188069;81;21080;-83
2021/11/26 04:16:55;;;;;;;65.65;34.95;;;;;;;4.22;100.00;97634.53;2187979;81;21021;-84
2021/11/26 04:19:56;;;;;;;73.80;38.95;;;;;;;4.15;100.00;97642.15;2187962;81;21036;-84
2021/11/26 04:22:57;;;;;;;66.72;37.83;;;;;;;4.09;100.00;97641.50;2188434;81;21009;-83
2021/11/26 04:25:57;;;;;;;75.62;38.40;;;;;;;4.10;100.00;97633.24;2189126;81;21517;-83
2021/11/26 04:28:59;;;;;;;75.62;40.03;;;;;;;4.11;100.00;97629.19;2188284;81;21037;-83
2021/11/26 04:32:00;;;;;;;74.35;38.50;;;;;;;4.10;100.00;97625.47;2188455;81;20965;-83
2021/11/26 04:35:01;;;;;;;77.45;40.03;;;;;;;4.04;100.00;97620.97;2188985;81;21485;-83
2021/11/26 04:38:01;;;;;;;75.15;39.35;;;;;;;4.05;100.00;97610.44;2188644;81;21026;-84
2021/11/26 04:41:02;;;;;;;66.22;36.68;;;;;;;4.03;100.00;97608.50;2187671;81;21100;-83
2021/11/26 04:44:04;;;;;;;76.25;39.83;;;;;;;3.96;100.00;97600.58;2187626;81;21069;-84
2021/11/26 04:47:04;;;;;;;74.72;40.52;;;;;;;3.91;100.00;97596.36;2187879;81;21005;-84
2021/11/26 04:50:05;;;;;;;67.62;38.48;;;;;;;3.93;100.00;97606.09;2187925;81;20977;-83
2021/11/26 04:53:06;;;;;;;74.12;39.88;;;;;;;3.95;100.00;97611.91;2187342;81;21005;-84
2021/11/26 04:56:07;;;;;;;79.82;41.05;;;;;;;3.99;100.00;97620.95;2171244;82;20963;-83
2021/11/26 04:59:08;;;;;;;70.35;39.80;;;;;;;3.98;100.00;97614.65;2171309;81;20962;-83
2021/11/26 05:02:09;;;;;;;64.45;37.25;;;;;;;4.02;100.00;97604.27;2171332;81;20966;-83
2021/11/26 05:05:09;;;;;;;66.82;38.42;;;;;;;3.97;100.00;97591.02;2171175;81;20971;-83
2021/11/26 05:08:10;;;;;;;75.00;39.40;;;;;;;3.91;100.00;97589.89;2171468;82;21009;-82
2021/11/26 05:11:11;;;;;;;74.60;39.27;;;;;;;3.91;100.00;97583.41;2171250;81;21001;-83
2021/11/26 05:14:17;;;;;;;67.53;37.58;;;;;;;3.91;100.00;97583.90;2171117;82;21354;-83
2021/11/26 05:17:14;;;;;;;74.50;39.60;;;;;;;3.86;100.00;97583.60;2170895;81;21573;-83
2021/11/26 05:20:15;;;;;;;73.90;37.60;;;;;;;3.86;100.00;97582.30;2171459;81;21017;-83
2021/11/26 05:23:16;;;;;;;70.00;37.08;;;;;;;3.87;100.00;97583.92;2171432;82;21588;-82
2021/11/26 05:26:17;;;;;;;72.82;37.90;;;;;;;3.80;100.00;97574.70;2171488;81;21010;-84
2021/11/26 05:29:18;;;;;;;71.80;37.28;;;;;;;3.77;100.00;97567.75;2171342;82;21495;-83
2021/11/26 05:32:19;;;;;;;75.62;39.38;;;;;;;3.72;100.00;97556.58;2171598;81;21025;-82
2021/11/26 05:35:19;;;;;;;78.87;40.60;;;;;;;3.69;100.00;97559.51;2171922;81;20954;-82
2021/11/26 05:38:20;;;;;;;73.80;39.27;;;;;;;3.70;100.00;97552.06;2172199;82;21041;-81
2021/11/26 05:41:21;;;;;;;78.70;38.70;;;;;;;3.79;100.00;97543.80;2171610;81;21410;-82
2021/11/26 05:44:22;;;;;;;74.20;37.17;;;;;;;3.84;100.00;97547.52;2171167;81;21068;-85
2021/11/26 05:47:23;;;;;;;68.95;37.58;;;;;;;3.81;100.00;97550.41;2171542;82;21009;-83
2021/11/26 05:50:24;;;;;;;69.27;38.15;;;;;;;3.73;100.00;97559.98;2171216;81;21050;-83
2021/11/26 05:53:24;;;;;;;74.15;40.15;;;;;;;3.66;100.00;97559.84;2171170;81;21017;-83
2021/11/26 05:56:25;;;;;;;72.10;39.30;;;;;;;3.63;100.00;97562.25;2171263;82;21006;-82
2021/11/26 05:59:26;;;;;;;72.70;39.33;;;;;;;3.60;100.00;97550.13;2171873;82;21010;-83
2021/11/26 06:02:27;;;;;;;76.77;41.13;;;;;;;3.58;100.00;97543.02;2171191;82;20919;-83
2021/11/26 06:05:28;;;;;;;79.22;39.70;;;;;;;3.54;100.00;97532.66;2171245;82;20973;-83
2021/11/26 06:08:29;;;;;;;75.03;40.15;;;;;;;3.48;100.00;97532.84;2171196;81;21021;-82
2021/11/26 06:11:30;;;;;;;74.85;40.03;;;;;;;3.46;100.00;97524.90;2171353;82;21007;-83
2021/11/26 06:14:30;;;;;;;82.08;41.58;;;;;;;3.46;100.00;97523.61;2171391;82;21005;-82
2021/11/26 06:17:31;;;;;;;80.83;42.23;;;;;;;3.46;100.00;97537.34;2171234;81;20958;-82
2021/11/26 06:20:32;;;;;;;81.17;42.53;;;;;;;3.46;100.00;97542.53;2171302;81;21037;-83
2021/11/26 06:23:33;;;;;;;79.75;42.08;;;;;;;3.47;100.00;97532.98;2171221;81;21536;-82
2021/11/26 06:26:34;;;;;;;71.15;39.55;;;;;;;3.51;100.00;97531.70;2171446;81;21012;-85
2021/11/26 06:29:35;;;;;;;67.92;36.70;;;;;;;3.51;100.00;97531.22;2171433;82;21065;-86
2021/11/26 06:32:35;;;;;;;73.00;37.50;;;;;;;3.50;100.00;97528.30;2171550;81;21078;-85
2021/11/26 06:35:36;;;;;;;69.55;37.67;;;;;;;3.48;100.00;97535.44;2171554;81;21544;-84
2021/11/26 06:38:37;;;;;;;74.50;36.95;;;;;;;3.47;100.00;97538.16;2171422;82;21033;-84
2021/11/26 06:41:38;;;;;;;73.65;39.95;;;;;;;3.41;100.00;97532.68;2171675;82;21010;-84
2021/11/26 06:44:39;;;;;;;71.70;38.60;;;;;;;3.40;100.00;97534.95;2171911;81;21058;-87
2021/11/26 06:47:41;;;;;;;76.00;39.85;;;;;;;3.43;100.00;97538.50;2171518;82;21466;-84
2021/11/26 06:50:42;;;;;;;75.90;37.95;;;;;;;3.45;100.00;97531.05;2171268;81;20998;-83
2021/11/26 06:53:42;;;;;;;68.80;38.92;;;;;;;3.44;100.00;97532.83;2171341;81;21493;-82
2021/11/26 06:56:43;;;;;;;62.85;37.13;;;;;;;3.50;100.00;97541.25;2171457;82;21001;-83
2021/11/26 06:59:44;;;;;;;67.47;37.53;;;;;;;3.53;100.00;97542.69;2171403;81;20973;-84
2021/11/26 07:02:45;;;;;;;66.20;36.40;;;;;;;3.53;100.00;97542.20;2171679;81;20993;-81
2021/11/26 07:05:46;;;;;;;66.45;35.80;;;;;;;3.53;100.00;97542.69;2171437;82;20966;-82
2021/11/26 07:08:47;;;;;;;72.37;38.00;;;;;;;3.55;100.00;97554.49;2171482;81;21560;-84
2021/11/26 07:11:48;;;;;;;83.85;42.38;;;;;;;3.56;100.00;97550.93;2171394;81;21033;-82
2021/11/26 07:14:48;;;;;;;81.30;42.25;;;;;;;3.60;100.00;97546.25;2171328;81;21005;-82
2021/11/26 07:17:49;;;;;;;77.58;40.80;;;;;;;3.68;100.00;97544.95;2171239;81;21057;-82
2021/11/26 07:20:51;;;;;;;77.22;39.63;;;;;;;3.73;100.00;97544.44;2171397;81;21125;-82
2021/11/26 07:23:52;;;;;;;78.35;39.80;;;;;;;3.76;100.00;97532.48;2171406;82;20958;-82
2021/11/26 07:26:53;;;;;;;72.42;38.78;;;;;;;3.79;100.00;97533.44;2171454;82;21021;-82
2021/11/26 07:29:54;;;;;;;69.58;38.42;;;;;;;3.79;100.00;97514.82;2171475;82;21055;-82
2021/11/26 07:32:55;;;;;;;84.45;40.45;;;;;;;3.80;100.00;97497.50;2171479;82;21062;-83
2021/11/26 07:35:56;;;;;;;70.17;37.50;;;;;;;3.79;100.00;97495.89;2171520;81;20990;-83
2021/11/26 07:38:57;;;;;;;63.85;35.78;;;;;;;3.77;100.00;97488.30;2171526;82;21014;-83
2021/11/26 07:41:59;;;;;;;73.92;39.78;;;;;;;3.75;100.00;97490.25;2171183;81;21086;-82
2021/11/26 07:45:00;;;;;;;78.20;39.98;;;;;;;3.73;100.00;97489.58;2171530;82;20931;-84
2021/11/26 07:48:01;;;;;;;74.58;39.73;;;;;;;3.74;100.00;97490.39;2171379;82;21045;-82
2021/11/26 07:51:02;;;;;;;67.72;37.40;;;;;;;3.72;100.00;97491.85;2171280;81;21038;-85
2021/11/26 07:54:04;;;;;;;70.37;37.60;;;;;;;3.70;100.00;97498.98;2171347;81;21006;-80
2021/11/26 07:57:05;;;;;;;68.05;36.80;;;;;;;3.71;100.00;97490.24;2171498;81;21505;-81
2021/11/26 08:00:06;;;;;;;70.10;37.40;;;;;;;3.73;100.00;97495.25;2171306;82;21533;-84
2021/11/26 08:03:07;;;;;;;65.85;35.63;;;;;;;3.75;100.00;97492.84;2171473;81;21513;-84
2021/11/26 08:06:09;;;;;;;73.72;37.83;;;;;;;3.75;100.00;97489.41;2171176;81;21017;-82
2021/11/26 08:09:10;;;;;;;70.75;39.55;;;;;;;3.77;100.00;97494.77;2171067;81;21005;-83
2021/11/26 08:12:10;;;;;;;74.15;38.55;;;;;;;3.80;100.00;97485.36;2171285;81;21021;-84
2021/11/26 08:15:11;;;;;;;66.65;37.38;;;;;;;3.80;100.00;97488.44;2171268;81;20967;-84
2021/11/26 08:18:13;;;;;;;76.15;39.27;;;;;;;3.81;100.00;97490.05;2171258;82;21334;-84
2021/11/26 08:21:14;;;;;;;69.70;38.42;;;;;;;3.82;100.00;97491.66;2171163;81;21022;-84
2021/11/26 08:24:15;;;;;;;71.12;35.55;;;;;;;3.85;100.00;97494.75;2171233;81;20997;-84
2021/11/26 08:27:17;;;;;;;67.17;36.98;;;;;;;3.87;100.00;97490.20;2171120;81;21037;-84
2021/11/26 08:30:18;;;;;;;64.42;35.58;;;;;;;3.87;100.00;97482.92;2171157;81;20998;-93
2021/11/26 08:33:19;;;;;;;84.22;41.58;;;;;;;3.86;100.00;97479.53;2171292;81;21089;-87
2021/11/26 08:36:19;;;;;;;82.40;42.05;;;;;;;3.88;100.00;97485.34;2171218;81;21030;-84
2021/11/26 08:39:21;;;;;;;79.37;42.05;;;;;;;3.91;100.00;97475.12;2171527;82;20974;-86
2021/11/26 08:42:22;;;;;;;85.38;43.95;;;;;;;3.92;100.00;97463.30;2171383;81;21012;-88
2021/11/26 08:45:23;;;;;;;75.60;41.33;;;;;;;3.94;100.00;97463.97;2160782;82;21006;-86
2021/11/26 08:48:25;;;;;;;76.87;39.85;;;;;;;3.97;100.00;97455.84;2171079;81;21068;-84
2021/11/26 08:51:28;;;;;;;72.72;37.65;;;;;;;4.00;100.00;97451.62;2171292;81;21015;-84
2021/11/26 08:54:29;;;;;;;78.33;40.33;;;;;;;4.02;100.00;97438.98;2171038;81;21050;-86
2021/11/26 08:57:31;;;;;;;78.90;41.90;;;;;;;4.02;100.00;97435.91;2171214;81;21066;-85
2021/11/26 09:00:32;;;;;;;83.82;44.75;;;;;;;4.07;100.00;97431.52;2171271;81;20978;-84
2021/11/26 09:03:33;;;;;;;71.10;38.83;;;;;;;4.12;100.00;97429.25;2171145;82;21017;-84
2021/11/26 09:06:34;;;;;;;84.58;44.75;;;;;;;4.16;100.00;97423.54;2171222;81;21006;-84
2021/11/26 09:09:35;;;;;;;79.07;41.85;;;;;;;4.23;100.00;97414.61;2172245;82;21021;-82
2021/11/26 09:12:37;;;;;;;87.20;43.87;;;;;;;4.26;100.00;97409.07;2173078;82;20996;-80
2021/11/26 09:15:39;;;;;;;77.50;40.08;;;;;;;4.23;100.00;97406.83;2173863;81;20970;-83
2021/11/26 09:18:40;;;;;;;81.22;44.27;;;;;;;4.23;100.00;97401.16;2171286;82;21077;-81
2021/11/26 09:21:41;;;;;;;71.77;37.17;;;;;;;4.31;100.00;97400.80;2171766;82;21512;-83
2021/11/26 09:24:42;;;;;;;62.35;33.90;;;;;;;4.35;100.00;97387.31;2171768;82;20981;-84
2021/11/26 09:27:43;;;;;;;63.33;35.58;;;;;;;4.38;100.00;97388.74;2171237;82;21048;-88
2021/11/26 09:33:59;;;;;;;64.07;35.65;;;;;;;4.46;100.00;97389.50;2170796;82;21580;-88
2021/11/26 09:37:01;;;;;;;71.55;38.48;;;;;;;4.52;100.00;97379.74;2171115;82;21002;-89
2021/11/26 09:40:03;;;;;;;75.55;41.05;;;;;;;4.56;100.00;97367.23;2171191;81;20986;-89
2021/11/26 09:43:06;;;;;;;72.27;41.68;;;;;;;4.63;100.00;97368.15;2171217;82;21486;-89
2021/11/26 09:46:07;;;;;;;68.42;37.33;;;;;;;4.73;100.00;97366.61;2171495;82;21072;-87
2021/11/26 09:49:08;;;;;;;73.60;38.98;;;;;;;4.73;100.00;97365.31;2171466;81;21004;-88
2021/11/26 09:52:09;;;;;;;62.13;35.45;;;;;;;4.67;100.00;97359.06;2171264;82;21030;-91
2021/11/26 09:55:11;;;;;;;75.72;41.08;;;;;;;4.72;100.00;97363.70;2175989;81;21037;-90
2021/11/26 09:58:12;;;;;;;75.55;39.55;;;;;;;4.73;100.00;97350.56;2188004;81;21034;-90
2021/11/26 10:01:14;;;;;;;71.55;40.00;;;;;;;4.71;100.00;97346.05;2187895;81;21001;-90
2021/11/26 10:04:16;;;;;;;66.42;34.73;;;;;;;4.69;100.00;97338.13;2187768;81;21000;-90
2021/11/26 10:07:17;;;;;;;70.85;40.43;;;;;;;4.65;100.00;97325.19;2187646;81;21036;-90
2021/11/26 10:10:18;;;;;;;65.78;37.33;;;;;;;4.55;100.00;97322.35;2188311;81;21076;-87
2021/11/26 10:13:19;;;;;;;77.27;41.95;;;;;;;4.48;100.00;97314.98;2187616;81;20993;-87
2021/11/26 10:16:21;;;;;;;83.95;44.27;;;;;;;4.41;100.00;97307.58;2187942;81;21064;-88
2021/11/26 10:19:23;;;;;;;73.75;37.75;;;;;;;4.36;100.00;97305.19;2187790;81;21016;-90
2021/11/26 10:22:24;;;;;;;70.30;39.48;;;;;;;4.30;100.00;97295.05;2187660;81;20977;-86
2021/11/26 10:25:25;;;;;;;81.47;45.48;;;;;;;4.26;100.00;97288.58;2187735;81;21021;-85
2021/11/26 10:28:26;;;;;;;65.37;34.92;;;;;;;4.29;100.00;97289.03;2188056;81;21072;-85
2021/11/26 10:31:27;;;;;;;76.60;41.75;;;;;;;4.37;100.00;97289.45;2187673;81;21556;-86
2021/11/26 10:34:28;;;;;;;75.70;39.08;;;;;;;4.34;100.00;97278.16;2187935;81;21631;-86
2021/11/26 10:37:29;;;;;;;93.80;48.83;;;;;;;4.40;100.00;97272.78;2188066;81;21032;-85
2021/11/26 10:40:32;;;;;;;94.80;47.95;;;;;;;4.50;100.00;97272.03;2188160;81;20970;-85
2021/11/26 10:43:43;;;;;;;82.17;43.10;;;;;;;4.59;100.00;97261.10;2187666;81;21592;-87
2021/11/26 10:59:29;;;;;;;74.90;41.33;;;;;;;4.59;100.00;97228.20;2068550;85;21065;-86
2021/11/26 11:02:30;;;;;;;76.45;42.78;;;;;;;4.54;100.00;97217.05;2068506;86;20982;-87
2021/11/26 11:05:31;;;;;;;104.25;50.40;;;;;;;4.51;100.00;97209.64;2068441;86;21593;-85
2021/11/26 11:08:31;;;;;;;81.80;43.08;;;;;;;4.54;100.00;97206.69;2068373;86;20991;-86
2021/11/26 11:11:32;;;;;;;82.92;43.50;;;;;;;4.58;100.00;97206.34;2068438;86;21573;-84
2021/11/26 11:14:33;;;;;;;68.57;37.20;;;;;;;4.50;100.00;97202.85;2068470;86;21042;-85
2021/11/26 11:17:34;;;;;;;82.00;44.90;;;;;;;4.53;100.00;97199.89;2068596;86;21014;-84
2021/11/26 11:20:35;;;;;;;76.70;36.75;;;;;;;4.44;100.00;97189.79;2068490;86;20998;-85
2021/11/26 11:23:36;;;;;;;74.95;39.80;;;;;;;4.35;100.00;97187.77;2068504;86;21625;-85
2021/11/26 11:26:37;;;;;;;76.02;41.50;;;;;;;4.26;100.00;97184.94;2068602;86;21105;-84
2021/11/26 11:29:37;;;;;;;78.12;43.45;;;;;;;4.25;100.00;97186.73;2158699;82;20986;-85
2021/11/26 11:32:38;;;;;;;74.45;39.98;;;;;;;4.23;100.00;97184.01;2181369;81;21036;-85
2021/11/26 11:35:41;;;;;;;93.25;46.77;;;;;;;4.18;100.00;97176.75;2181291;82;20973;-86
2021/11/26 11:38:41;;;;;;;79.80;40.63;;;;;;;4.17;100.00;97174.34;2181159;82;21025;-86
2021/11/26 11:41:42;;;;;;;95.05;47.15;;;;;;;4.18;100.00;97165.58;2181951;82;20994;-85
2021/11/26 11:44:44;;;;;;;74.87;41.83;;;;;;;4.15;100.00;97160.77;2182123;82;21091;-86
2021/11/26 11:47:45;;;;;;;83.03;42.62;;;;;;;4.21;100.00;97155.69;2182282;82;21806;-85
2021/11/26 11:50:48;;;;;;;79.37;38.85;;;;;;;4.20;100.00;97152.76;2181458;81;21073;-85
2021/11/26 11:53:50;;;;;;;71.02;35.80;;;;;;;4.22;100.00;97145.64;2181458;81;21009;-85
2021/11/26 11:56:51;;;;;;;72.47;39.63;;;;;;;4.19;100.00;97134.80;2185636;81;21166;-85
2021/11/26 11:59:52;;;;;;;86.82;46.23;;;;;;;4.16;100.00;97121.72;2187906;81;20992;-86
2021/11/26 12:02:53;;;;;;;84.75;46.40;;;;;;;4.12;100.00;97111.42;2187923;81;20984;-85
2021/11/26 12:05:54;;;;;;;91.28;48.35;;;;;;;4.18;100.00;97112.48;2188107;81;21527;-85
2021/11/26 12:08:55;;;;;;;83.78;45.58;;;;;;;4.24;100.00;97106.09;2187763;81;21587;-84
2021/11/26 12:11:56;;;;;;;78.85;42.65;;;;;;;4.22;100.00;97091.72;2187793;81;20973;-82
2021/11/26 12:14:57;;;;;;;83.45;45.38;;;;;;;4.21;100.00;97083.64;2188791;81;20989;-90
2021/11/26 12:17:58;;;;;;;73.85;39.85;;;;;;;4.20;100.00;97080.22;2188697;81;20957;-80
2021/11/26 12:20:59;;;;;;;74.20;41.95;;;;;;;4.22;100.00;97070.50;2189006;81;21443;-86
2021/11/26 12:24:05;;;;;;;79.03;40.85;;;;;;;4.15;100.00;97072.20;2188559;81;21001;-80
2021/11/26 12:27:05;;;;;;;86.40;44.95;;;;;;;4.13;100.00;97059.12;2187953;81;21064;-87
2021/11/26 12:30:06;;;;;;;94.47;50.90;;;;;;;4.09;100.00;97050.08;2188051;81;21640;-88
2021/11/26 12:33:07;;;;;;;86.17;45.70;;;;;;;4.03;100.00;97037.86;2187757;81;21037;-86
2021/11/26 12:36:09;;;;;;;76.15;40.28;;;;;;;4.06;100.00;97040.89;2187911;81;21030;-86
2021/11/26 12:39:10;;;;;;;85.55;43.78;;;;;;;4.01;100.00;97040.61;2187763;81;21017;-86
2021/11/26 12:42:11;;;;;;;75.32;37.35;;;;;;;3.96;100.00;97038.56;2187745;81;21040;-83
2021/11/26 12:45:12;;;;;;;87.47;44.42;;;;;;;3.93;100.00;97031.16;2187823;81;20953;-86
2021/11/26 12:48:21;;;;;;;86.45;41.58;;;;;;;3.94;100.00;97027.59;2187906;81;21012;-84
2021/11/26 12:51:16;;;;;;;79.45;41.55;;;;;;;3.91;100.00;97024.04;2186959;81;21085;-83
2021/11/26 12:54:17;;;;;;;95.35;47.40;;;;;;;3.90;100.00;97013.86;2188145;81;21504;-86
2021/11/26 12:57:18;;;;;;;107.63;50.90;;;;;;;3.89;100.00;96998.83;2187887;81;20993;-84
2021/11/26 13:00:19;;;;;;;104.43;50.17;;;;;;;3.92;100.00;97000.24;2187819;81;21035;-84
2021/11/26 13:03:20;;;;;;;107.70;49.23;;;;;;;3.92;100.00;96995.06;2188267;81;20958;-83
2021/11/26 13:06:21;;;;;;;91.95;41.42;;;;;;;3.85;100.00;96985.13;2188337;81;21028;-84
2021/11/26 13:09:22;;;;;;;109.05;50.55;;;;;;;3.85;100.00;96984.64;2188439;81;21073;-80
2021/11/26 13:12:23;;;;;;;110.75;51.35;;;;;;;3.83;100.00;96987.88;2187941;81;20973;-85
2021/11/26 13:15:24;;;;;;;110.17;51.60;;;;;;;3.82;100.00;96985.47;2187793;81;20977;-84
2021/11/26 13:18:25;;;;;;;111.00;50.98;;;;;;;3.80;100.00;96986.14;2188132;81;21083;-83
2021/11/26 13:21:26;;;;;;;112.85;54.40;;;;;;;3.80;100.00;96980.97;2188374;81;21084;-86
2021/11/26 13:24:26;;;;;;;120.35;58.58;;;;;;;3.81;100.00;96978.69;2188506;81;21588;-86
2021/11/26 13:27:28;;;;;;;112.45;52.83;;;;;;;3.83;100.00;96970.24;2187950;81;21037;-84
2021/11/26 13:30:28;;;;;;;130.35;58.87;;;;;;;3.82;100.00;96966.05;2188063;81;21485;-84
2021/11/26 13:33:29;;;;;;;136.12;63.75;;;;;;;3.84;100.00;96971.38;2187766;81;20989;-84
2021/11/26 13:36:30;;;;;;;104.50;52.43;;;;;;;3.89;100.00;96957.89;2187871;81;20967;-84
2021/11/26 13:39:31;;;;;;;95.30;50.20;;;;;;;3.88;100.00;96950.61;2189125;81;21469;-85
2021/11/26 13:42:34;;;;;;;119.20;56.70;;;;;;;3.85;100.00;96952.27;2187833;81;21319;-84
2021/11/26 13:45:35;;;;;;;94.52;47.05;;;;;;;3.86;100.00;96946.11;2187958;81;21068;-84
2021/11/26 13:48:36;;;;;;;87.37;42.53;;;;;;;3.84;100.00;96947.25;2187929;81;21036;-85
2021/11/26 13:51:37;;;;;;;87.90;42.30;;;;;;;3.79;100.00;96941.33;2187809;81;20977;-85
2021/11/26 13:54:37;;;;;;;93.65;47.88;;;;;;;3.74;100.00;96934.58;2187815;81;21471;-85
2021/11/26 13:57:38;;;;;;;106.17;52.75;;;;;;;3.71;100.00;96929.77;2175509;81;21014;-84
2021/11/26 14:00:39;;;;;;;96.15;49.18;;;;;;;3.71;100.00;96934.95;2171205;82;20970;-85
2021/11/26 14:03:40;;;;;;;103.45;53.73;;;;;;;3.75;100.00;96928.91;2171994;82;20979;-84
2021/11/26 14:06:41;;;;;;;106.05;52.70;;;;;;;3.73;100.00;96924.41;2172498;82;20985;-82
2021/11/26 14:09:42;;;;;;;88.37;42.53;;;;;;;3.70;100.00;96922.50;2173396;82;20982;-84